createdAt,value
2018-12-23T00:04:46.125Z,101639.72
2018-12-23T00:09:39.326Z,101640.91
2018-12-23T00:14:32.568Z,101636.20
2018-12-23T00:19:25.785Z,101640.69
2018-12-23T00:24:18.965Z,101638.11
2018-12-23T00:29:12.151Z,101635.24
2018-12-23T00:34:05.392Z,101642.77
2018-12-23T00:38:58.672Z,101645.88
2018-12-23T00:43:51.877Z,101651.35
2018-12-23T00:48:45.139Z,101638.09
2018-12-23T00:53:38.318Z,101633.90
2018-12-23T00:58:31.656Z,101639.58
2018-12-23T01:03:24.884Z,101645.97
2018-12-23T01:08:18.147Z,101637.27
2018-12-23T01:13:12.319Z,101642.26
2018-12-23T01:18:05.532Z,101668.64
2018-12-23T01:22:59.415Z,101679.49
2018-12-23T01:27:52.680Z,101664.23
2018-12-23T01:32:45.966Z,101656.92
2018-12-23T01:37:39.168Z,101661.88
2018-12-23T01:42:32.420Z,101660.18
2018-12-23T01:47:26.307Z,101668.57
2018-12-23T01:52:19.561Z,101668.98
2018-12-23T01:57:12.866Z,101680.03
2018-12-23T02:02:06.573Z,101697.45
2018-12-23T02:07:00.057Z,101687.89
2018-12-23T02:11:53.319Z,101689.45
2018-12-23T02:16:47.389Z,101694.41
2018-12-23T02:21:40.608Z,101699.89
2018-12-23T02:26:33.890Z,101694.08
2018-12-23T02:31:27.079Z,101689.88
2018-12-23T02:36:20.325Z,101691.97
2018-12-23T02:41:13.557Z,101687.27
2018-12-23T02:46:07.309Z,101695.08
2018-12-23T02:51:00.517Z,101695.53
2018-12-23T02:55:53.863Z,101693.64
2018-12-23T03:01:18.369Z,101688.09
2018-12-23T03:06:11.775Z,101687.03
2018-12-23T03:11:05.220Z,101680.73
2018-12-23T03:15:58.672Z,101680.95
2018-12-23T03:20:52.096Z,101696.64
2018-12-23T03:25:45.527Z,101691.08
2018-12-23T03:30:38.937Z,101667.61
2018-12-23T03:35:32.375Z,101674.50
2018-12-23T03:40:25.839Z,101671.64
2018-12-23T03:45:19.572Z,101673.16
2018-12-23T03:50:13.012Z,101673.89
2018-12-23T03:55:06.433Z,101677.86
2018-12-23T03:59:59.896Z,101664.97
2018-12-23T04:04:53.313Z,101658.14
2018-12-23T04:09:47.368Z,101668.51
2018-12-23T04:14:40.750Z,101666.92
2018-12-23T04:19:34.195Z,101665.40
2018-12-23T04:24:27.636Z,101669.66
2018-12-23T04:29:21.088Z,101668.01
2018-12-23T04:34:14.503Z,101669.17
2018-12-23T04:39:07.925Z,101664.73
2018-12-23T04:44:01.381Z,101660.77
2018-12-23T04:48:54.844Z,101660.63
2018-12-23T04:53:48.281Z,101642.02
2018-12-23T04:58:41.717Z,101637.10
2018-12-23T05:03:42.563Z,101636.26
2018-12-23T05:08:30.603Z,101639.95
2018-12-23T05:13:24.128Z,101631.41
2018-12-23T05:18:17.545Z,101636.22
2018-12-23T05:23:11.002Z,101623.39
2018-12-23T05:28:04.426Z,101634.63
2018-12-23T05:32:57.867Z,101625.49
2018-12-23T05:37:51.276Z,101622.11
2018-12-23T05:42:44.720Z,101624.45
2018-12-23T05:47:38.166Z,101622.75
2018-12-23T05:52:31.631Z,101628.59
2018-12-23T05:57:25.077Z,101629.59
2018-12-23T06:02:18.517Z,101626.99
2018-12-23T06:07:11.927Z,101623.86
2018-12-23T06:12:05.359Z,101614.62
2018-12-23T06:16:58.814Z,101622.33
2018-12-23T06:21:52.243Z,101624.89
2018-12-23T06:26:45.676Z,101628.22
2018-12-23T06:31:39.113Z,101629.17
2018-12-23T06:36:32.590Z,101630.63
2018-12-23T06:41:26.033Z,101633.66
2018-12-23T06:46:19.764Z,101627.94
2018-12-23T06:51:13.220Z,101632.48
2018-12-23T06:56:06.670Z,101622.51
2018-12-23T07:01:00.086Z,101626.06
2018-12-23T07:05:53.518Z,101615.80
2018-12-23T07:10:46.924Z,101618.09
2018-12-23T07:15:40.388Z,101612.23
2018-12-23T07:20:33.813Z,101617.77
2018-12-23T07:25:27.323Z,101613.71
2018-12-23T07:30:20.781Z,101609.07
2018-12-23T07:35:14.212Z,101610.77
2018-12-23T07:40:07.756Z,101608.37
2018-12-23T07:45:01.213Z,101606.66
2018-12-23T07:49:54.683Z,101611.34
2018-12-23T07:54:48.111Z,101615.91
2018-12-23T07:59:41.547Z,101616.53
2018-12-23T08:04:34.982Z,101610.00
2018-12-23T08:09:28.558Z,101616.05
2018-12-23T08:14:22.062Z,101608.24
2018-12-23T08:19:15.488Z,101608.60
2018-12-23T08:24:08.913Z,101598.78
2018-12-23T08:29:02.355Z,101598.89
2018-12-23T08:33:55.783Z,101600.40
2018-12-23T08:38:49.214Z,101590.53
2018-12-23T08:43:42.964Z,101588.25
2018-12-23T08:48:36.586Z,101593.09
2018-12-23T08:53:30.023Z,101591.65
2018-12-23T08:58:23.418Z,101587.53
2018-12-23T09:03:18.914Z,101577.81
2018-12-23T09:08:12.156Z,101580.95
2018-12-23T09:13:05.703Z,101576.38
2018-12-23T09:17:59.370Z,101577.08
2018-12-23T09:22:52.797Z,101569.33
2018-12-23T09:27:46.209Z,101562.62
2018-12-23T09:32:39.643Z,101554.86
2018-12-23T09:37:33.073Z,101540.77
2018-12-23T09:42:26.556Z,101548.47
2018-12-23T09:47:19.961Z,101544.08
2018-12-23T09:52:13.421Z,101544.22
2018-12-23T09:57:06.855Z,101534.55
2018-12-23T10:02:00.294Z,101537.55
2018-12-23T10:06:53.741Z,101533.28
2018-12-23T10:11:47.170Z,101530.09
2018-12-23T10:16:40.603Z,101516.96
2018-12-23T10:21:34.187Z,101507.55
2018-12-23T10:26:27.631Z,101497.66
2018-12-23T10:31:21.049Z,101494.17
2018-12-23T10:36:14.525Z,101484.02
2018-12-23T10:41:07.954Z,101478.20
2018-12-23T10:46:01.413Z,101462.66
2018-12-23T10:50:54.828Z,101460.56
2018-12-23T10:55:48.264Z,101442.32
2018-12-23T11:00:41.724Z,101439.27
2018-12-23T11:05:35.179Z,101422.50
2018-12-23T11:10:28.604Z,101421.11
2018-12-23T11:15:22.025Z,101405.83
2018-12-23T11:20:15.485Z,101395.75
2018-12-23T11:25:08.942Z,101388.46
2018-12-23T11:30:02.669Z,101384.27
2018-12-23T11:34:56.146Z,101377.04
2018-12-23T11:39:49.698Z,101368.28
2018-12-23T11:44:43.139Z,101362.91
2018-12-23T11:49:36.716Z,101352.27
2018-12-23T11:54:30.153Z,101337.22
2018-12-23T11:59:23.598Z,101328.13
2018-12-23T12:04:17.065Z,101329.74
2018-12-23T12:09:10.496Z,101324.44
2018-12-23T12:14:04.052Z,101316.27
2018-12-23T12:18:57.482Z,101307.10
2018-12-23T12:23:50.954Z,101297.11
2018-12-23T12:28:44.400Z,101292.06
2018-12-23T12:33:38.222Z,101279.97
2018-12-23T12:38:31.758Z,101271.16
2018-12-23T12:43:25.216Z,101262.06
2018-12-23T12:48:18.683Z,101253.01
2018-12-23T12:53:12.110Z,101236.52
2018-12-23T12:58:05.530Z,101214.82
2018-12-23T13:02:58.937Z,101209.28
2018-12-23T13:07:55.340Z,101202.13
2018-12-23T13:12:49.827Z,101191.64
2018-12-23T13:17:43.395Z,101177.92
2018-12-23T13:22:36.918Z,101160.33
2018-12-23T13:27:31.798Z,101158.85
2018-12-23T13:32:26.523Z,101149.92
2018-12-23T13:37:20.031Z,101139.19
2018-12-23T13:42:55.400Z,101137.25
2018-12-23T13:48:44.525Z,101123.83
2018-12-23T13:55:02.040Z,101118.97
2018-12-23T14:00:44.007Z,101111.09
2018-12-23T14:06:51.755Z,101107.58
2018-12-23T14:11:57.767Z,101089.80
2018-12-23T14:16:53.326Z,101074.09
2018-12-23T14:21:48.097Z,101068.16
2018-12-23T14:26:43.541Z,101060.34
2018-12-23T14:31:37.077Z,101038.20
2018-12-23T14:36:30.633Z,101034.48
2018-12-23T14:41:26.994Z,101036.36
2018-12-23T14:46:20.548Z,101016.41
2018-12-23T14:51:16.991Z,100996.27
2018-12-23T14:56:11.545Z,100992.81
2018-12-23T15:01:05.125Z,100982.61
2018-12-23T15:06:00.124Z,100973.41
2018-12-23T15:10:54.734Z,100971.17
2018-12-23T15:15:50.596Z,100953.52
2018-12-23T15:20:44.104Z,100965.07
2018-12-23T15:25:38.919Z,100950.42
2018-12-23T15:30:34.292Z,100926.96
2018-12-23T15:35:29.619Z,100914.92
2018-12-23T15:40:25.892Z,100926.33
2018-12-23T15:45:21.692Z,100852.17
2018-12-23T15:50:15.227Z,100909.82
2018-12-23T15:55:08.774Z,100913.84
2018-12-23T16:00:02.303Z,100899.53
2018-12-23T16:04:55.958Z,100896.16
2018-12-23T16:09:51.274Z,100879.88
2018-12-23T16:14:45.157Z,100857.30
2018-12-23T16:19:38.875Z,100851.70
2018-12-23T16:24:33.639Z,100839.55
2018-12-23T16:29:29.462Z,100835.23
2018-12-23T16:34:23.033Z,100841.27
2018-12-23T16:39:18.908Z,100833.30
2018-12-23T16:44:12.435Z,100821.17
2018-12-23T16:49:06.532Z,100816.97
2018-12-23T16:54:00.007Z,100803.80
2018-12-23T16:58:57.583Z,100804.44
2018-12-23T17:03:51.148Z,100795.18
2018-12-23T17:08:44.669Z,100786.83
2018-12-23T17:13:42.252Z,100792.44
2018-12-23T17:18:35.820Z,100792.31
2018-12-23T17:23:29.383Z,100782.97
2018-12-23T17:28:22.970Z,100772.17
2018-12-23T17:33:16.619Z,100772.61
2018-12-23T17:38:10.212Z,100776.05
2018-12-23T17:43:03.731Z,100763.17
2018-12-23T17:47:58.327Z,100760.45
2018-12-23T17:52:52.325Z,100759.77
2018-12-23T17:57:45.894Z,100757.92
2018-12-23T18:02:39.433Z,100761.22
2018-12-23T18:07:34.317Z,100753.13
2018-12-23T18:12:28.098Z,100748.04
2018-12-23T18:17:24.572Z,100745.47
2018-12-23T18:22:21.040Z,100748.55
2018-12-23T18:27:15.805Z,100738.59
2018-12-23T18:32:09.359Z,100742.19
2018-12-23T18:37:04.075Z,100740.84
2018-12-23T18:41:57.598Z,100732.57
2018-12-23T18:46:54.907Z,100727.58
2018-12-23T18:51:48.430Z,100723.77
2018-12-23T18:56:45.795Z,100722.23
2018-12-23T19:01:47.468Z,100708.48
2018-12-23T19:06:43.903Z,100714.77
2018-12-23T19:12:45.207Z,100718.89
2018-12-23T19:18:13.275Z,100702.56
2018-12-23T19:24:10.926Z,100712.76
2018-12-23T19:29:50.116Z,100710.95
2018-12-23T19:36:00.758Z,100704.42
2018-12-23T19:42:02.339Z,100703.20
2018-12-23T19:48:08.124Z,100707.52
2018-12-23T19:54:05.749Z,100694.87
2018-12-23T20:00:11.633Z,100703.39
2018-12-23T20:06:05.210Z,100695.56
2018-12-23T20:12:35.941Z,100686.05
2018-12-23T20:18:21.127Z,100687.55
2018-12-23T20:24:37.809Z,100698.36
2018-12-23T20:30:42.224Z,100699.14
2018-12-23T20:36:47.176Z,100698.84
2018-12-23T20:42:44.775Z,100698.52
2018-12-23T20:48:44.316Z,100693.61
2018-12-23T20:54:37.812Z,100703.32
2018-12-23T21:00:23.325Z,100694.70
2018-12-23T21:06:09.410Z,100689.14
2018-12-23T21:12:12.504Z,100717.77
2018-12-23T21:17:50.734Z,100727.07
2018-12-23T21:23:27.335Z,100741.50
2018-12-23T21:28:50.540Z,100762.66
2018-12-23T21:34:47.205Z,100767.37
2018-12-23T21:41:00.384Z,100781.20
2018-12-23T21:46:59.399Z,100783.20
2018-12-23T21:53:05.568Z,100793.85
2018-12-23T21:59:18.146Z,100815.41
2018-12-23T22:05:10.101Z,100861.85
2018-12-23T22:10:49.804Z,100900.18
2018-12-23T22:15:43.250Z,100941.03
2018-12-23T22:20:38.638Z,100957.25
2018-12-23T22:25:53.458Z,100986.09
2018-12-23T22:30:46.953Z,100991.16
2018-12-23T22:35:40.398Z,101002.54
2018-12-23T22:40:36.784Z,101017.23
2018-12-23T22:45:30.209Z,101031.57
2018-12-23T22:50:23.959Z,101053.27
2018-12-23T22:55:17.367Z,101074.11
2018-12-23T23:00:12.410Z,101060.52
2018-12-23T23:05:05.853Z,101087.31
2018-12-23T23:09:59.298Z,101105.47
2018-12-23T23:14:52.714Z,101121.83
2018-12-23T23:19:46.150Z,101126.80
2018-12-23T23:24:39.577Z,101165.33
2018-12-23T23:29:33.089Z,101164.17
2018-12-23T23:34:26.487Z,101180.34
2018-12-23T23:39:19.950Z,101180.08
2018-12-23T23:44:13.380Z,101202.98
2018-12-23T23:49:06.798Z,101209.72
2018-12-23T23:54:00.530Z,101208.53
2018-12-23T23:58:54.001Z,101217.13
